マガダン の空港の天気 - METARとTAF

マガダン・ソコル空港 ( UHMM / GDX ) - ロシア マガダン
飛行場実況気象(Metar)
観測時間11/22 23:00 MAGT (11/22 12:00 UTC)
風向・風速静穏 0m/s
視程6000m
天気現象弱いしゅう雪
全天の8割程度の雲 雲底高度 340m
全天を覆う雲 雲底高度 520m
気温-16℃
湿度92%
気圧1003hPa
METARUHMM 221200Z 00000MPS 6000 -SHSN BKN011 OVC017CB M16/M17 Q1003 RMK MT OBSC QFE738
過去の天気等 Google飛行場航空写真 Wunderground天気予報

過去48時間のMETAR

飛行場予報(TAF)
発表時間: 11/22 21:50 MAGT (11/22 10:50 UTC)
予報対象時間: 22日23時 MAGT ~ 24日5時 MAGT
風向・風速東 3m/s
視程3,100m
天気現象弱いしゅう雪
全天の8割程度の雲 雲底高度 340m
全天を覆う積乱雲 雲底高度 610m
22日23時 MAGT ~ 24日5時 MAGT に一時的に
視程800m
天気現象強いしゅう雪
全天を覆う雲 鉛直視程 120m
TAF UHMM 221050Z 2212/2318 10003MPS 3100 -SHSN BKN011 OVC020CB
TEMPO 2212/2318 0800 +SHSN VV004